Duquesne, Missouri
Current Conditions -  °F | °C
As of 4:53 AM on Sunday 26 Oct 2014 (Local Time) from KJLN Reporting Station
Clear Clear  
Wind Chill: 65°   Ceiling: Unl
Heat Index: 65°   Visibility: 10mi
Dew Point: 61°   Wind: 8mph
Humidity: 87%   Direction: 190°S
Pressure: 29.97"   Gusts: NA
Location:  37.1074°N, 94.5218°W
Report Text: KJLN 260953Z AUTO 19007KT 10SM CLR 18/16 A2997 RMK AO2 SLP138 T01830161
Loading
Personal Weather Stations






























Interactive Weather Map
Tropical Storm Tracking
New forecast layout! Learn more

10-Day Weather Forecast

Advertisements
Track Severe Weather on mobile